createdAt,value
2022-08-12T00:02:12.002Z,1013.21
2022-08-12T00:08:36.894Z,1013.1
2022-08-12T00:14:55.012Z,1013.08
2022-08-12T00:21:14.976Z,1013.04
2022-08-12T00:27:43.722Z,1013.06
2022-08-12T00:33:57.983Z,1013.02
2022-08-12T00:40:20.984Z,1013
2022-08-12T00:46:40.998Z,1012.98
2022-08-12T00:53:03.976Z,1012.98
2022-08-12T00:59:23.968Z,1013.02
2022-08-12T01:05:47.013Z,1013.04
2022-08-12T01:12:06.970Z,1013.1
2022-08-12T01:18:29.997Z,1013.1
2022-08-12T01:24:49.989Z,1013.12
2022-08-12T01:31:15.920Z,1013.23
2022-08-12T01:37:32.997Z,1013.21
2022-08-12T01:43:55.995Z,1013.21
2022-08-12T01:50:15.991Z,1013.21
2022-08-12T01:56:38.980Z,1013.1
2022-08-12T02:02:58.969Z,1013.08
2022-08-12T02:09:21.986Z,1013.06
2022-08-12T02:15:41.985Z,1013.06
2022-08-12T02:22:05.045Z,1013.12
2022-08-12T02:28:24.993Z,1013.21
2022-08-12T02:34:47.963Z,1013.12
2022-08-12T02:41:07.980Z,1013.23
2022-08-12T02:47:59.005Z,1013.23
2022-08-12T02:54:03.152Z,1013.21
2022-08-12T03:00:13.996Z,1013.23
2022-08-12T03:06:33.987Z,1013.25
2022-08-12T03:12:56.997Z,1013.25
2022-08-12T03:19:17.016Z,1013.21
2022-08-12T03:25:39.990Z,1013.12
2022-08-12T03:32:00.005Z,1013.08
2022-08-12T03:54:47.996Z,1013.27
2022-08-12T04:01:11.008Z,1013.32
2022-08-12T04:07:31.015Z,1013.34
2022-08-12T04:13:54.016Z,1013.34
2022-08-12T04:20:13.984Z,1013.36
2022-08-12T04:26:36.983Z,1013.36
2022-08-12T04:32:56.983Z,1013.38
2022-08-12T04:39:20.022Z,1013.34
2022-08-12T04:45:39.987Z,1013.4
2022-08-12T04:52:03.041Z,1013.4
2022-08-12T04:58:29.417Z,1013.4
2022-08-12T05:04:46.007Z,1013.38
2022-08-12T05:11:06.013Z,1013.44
2022-08-12T05:17:29.003Z,1013.4
2022-08-12T05:23:49.017Z,1013.36
2022-08-12T05:30:12.015Z,1013.34
2022-08-12T05:36:31.982Z,1013.36
2022-08-12T05:42:54.975Z,1013.34
2022-08-12T05:49:15.061Z,1013.38
2022-08-12T05:55:37.967Z,1013.46
2022-08-12T06:02:08.689Z,1013.5
2022-08-12T06:08:20.985Z,1013.5
2022-08-12T06:14:40.986Z,1013.5
2022-08-12T06:21:03.989Z,1013.5
2022-08-12T06:27:23.983Z,1013.48
2022-08-12T06:33:56.327Z,1013.48
2022-08-12T06:40:07.031Z,1013.48
2022-08-12T06:46:29.977Z,1013.52
2022-08-12T06:52:49.997Z,1013.52
2022-08-12T06:59:12.978Z,1013.52
2022-08-12T07:05:32.969Z,1013.5
2022-08-12T07:11:56.013Z,1013.5
2022-08-12T07:18:15.979Z,1013.5
2022-08-12T07:24:38.980Z,1013.52
2022-08-12T07:30:59.008Z,1013.5
2022-08-12T07:37:21.979Z,1013.5
2022-08-12T07:43:42.015Z,1013.48
2022-08-12T07:50:06.718Z,1013.52
2022-08-12T07:56:24.985Z,1013.52
2022-08-12T08:02:47.991Z,1013.52
2022-08-12T08:09:07.985Z,1013.54
2022-08-12T08:15:51.543Z,1013.54
2022-08-12T08:21:50.988Z,1013.54
2022-08-12T08:28:13.987Z,1013.56
2022-08-12T08:34:53.232Z,1013.54
2022-08-12T08:40:56.982Z,1013.54
2022-08-12T08:47:16.993Z,1013.52
2022-08-12T08:53:39.988Z,1013.52
2022-08-12T08:59:59.978Z,1013.42
2022-08-12T09:22:30.986Z,1013.21
2022-08-12T09:28:54.168Z,1013.1
2022-08-12T09:35:18.393Z,1013.08
2022-08-12T09:42:10.187Z,1013.02
2022-08-12T09:47:59.756Z,1013.04
2022-08-12T09:54:31.345Z,1013.02
2022-08-12T10:00:48.516Z,1012.92
2022-08-12T10:07:02.997Z,1012.83
2022-08-12T10:13:34.107Z,1012.73
2022-08-12T10:19:51.712Z,1012.67
2022-08-12T10:26:18.777Z,1012.65
2022-08-12T10:32:43.322Z,1012.57
2022-08-12T10:38:48.984Z,1012.47
2022-08-12T10:45:14.167Z,1012.43
2022-08-12T10:51:52.331Z,1012.28
2022-08-12T10:58:13.881Z,1012.24
2022-08-12T11:04:20.963Z,1012.22
2022-08-12T11:10:38.010Z,1012.14
2022-08-12T11:17:35.180Z,1011.98
2022-08-12T11:23:24.862Z,1011.89
2022-08-12T11:30:01.428Z,1011.85
2022-08-12T11:36:03.989Z,1011.73
2022-08-12T11:42:32.410Z,1011.65
2022-08-12T11:48:50.995Z,1011.57
2022-08-12T11:55:10.191Z,1011.53
2022-08-12T12:01:57.890Z,1011.53
2022-08-12T12:08:36.987Z,1011.49
2022-08-12T12:14:15.974Z,1011.48
2022-08-12T12:20:36.202Z,1011.44
2022-08-12T12:26:59.930Z,1011.36
2022-08-12T12:33:18.970Z,1011.24
2022-08-12T12:39:54.964Z,1011.14
2022-08-12T12:46:01.972Z,1011.03
2022-08-12T12:52:26.143Z,1011.01
2022-08-12T12:58:44.975Z,1010.93
2022-08-12T13:05:11.866Z,1010.83
2022-08-12T13:11:32.805Z,1010.77
2022-08-12T13:18:00.789Z,1010.71
2022-08-12T13:24:10.989Z,1010.65
2022-08-12T13:30:34.016Z,1010.69
2022-08-12T13:36:53.985Z,1010.65
2022-08-12T13:43:16.987Z,1010.49
2022-08-12T13:49:54.309Z,1010.41
2022-08-12T13:56:01.746Z,1010.39
2022-08-12T14:02:20.037Z,1010.35
2022-08-12T14:08:43.018Z,1010.27
2022-08-12T14:15:02.991Z,1010.22
2022-08-12T14:21:25.990Z,1010.18
2022-08-12T14:28:03.164Z,1010.12
2022-08-12T14:34:08.989Z,1010.1
2022-08-12T14:40:29.102Z,1010.08
2022-08-12T14:57:20.783Z,1010.04
2022-08-12T15:03:36.708Z,1010
2022-08-12T15:09:56.006Z,1009.94
2022-08-12T15:16:18.770Z,1009.9
2022-08-12T15:22:53.344Z,1009.84
2022-08-12T15:28:58.998Z,1009.82
2022-08-12T15:35:22.010Z,1009.75
2022-08-12T15:41:49.010Z,1009.75
2022-08-12T15:48:16.555Z,1009.69
2022-08-12T15:54:31.558Z,1009.71
2022-08-12T16:00:48.001Z,1009.67
2022-08-12T16:07:09.135Z,1009.63
2022-08-12T16:13:32.896Z,1009.61
2022-08-12T16:20:02.036Z,1009.59
2022-08-12T16:26:14.972Z,1009.61
2022-08-12T16:32:34.009Z,1009.59
2022-08-12T16:38:57.027Z,1009.57
2022-08-12T16:45:16.993Z,1009.51
2022-08-12T16:51:40.258Z,1009.41
2022-08-12T16:57:59.993Z,1009.41
2022-08-12T17:04:24.232Z,1009.33
2022-08-12T17:10:42.988Z,1009.33
2022-08-12T17:17:09.841Z,1009.41
2022-08-12T17:23:25.979Z,1009.47
2022-08-12T17:30:01.675Z,1009.49
2022-08-12T17:36:10.654Z,1009.45
2022-08-12T17:42:32.421Z,1009.43
2022-08-12T17:48:54.792Z,1009.43
2022-08-12T17:55:21.927Z,1009.45
2022-08-12T18:01:35.129Z,1009.45
2022-08-12T18:07:57.985Z,1009.53
2022-08-12T18:14:22.584Z,1009.59
2022-08-12T18:20:44.702Z,1009.65
2022-08-12T18:27:00.992Z,1009.75
2022-08-12T18:33:24.004Z,1009.82
2022-08-12T18:39:44.001Z,1009.9
2022-08-12T18:46:06.986Z,1009.94
2022-08-12T18:52:26.978Z,1009.98
2022-08-12T18:58:53.114Z,1009.98
2022-08-12T19:05:10.254Z,1010.04
2022-08-12T19:11:32.977Z,1010.08
2022-08-12T19:17:56.939Z,1010.14
2022-08-12T19:24:15.968Z,1010.16
2022-08-12T19:30:35.977Z,1010.18
2022-08-12T19:36:59.107Z,1010.18
2022-08-12T19:43:20.563Z,1010.2
2022-08-12T19:49:41.993Z,1010.24
2022-08-12T19:56:01.976Z,1010.27
2022-08-12T20:02:31.414Z,1010.29
2022-08-12T20:08:45.519Z,1010.33
2022-08-12T20:15:09.650Z,1010.41
2022-08-12T20:38:26.292Z,1010.47
2022-08-12T20:44:34.977Z,1010.47
2022-08-12T20:50:58.065Z,1010.47
2022-08-12T20:57:17.998Z,1010.51
2022-08-12T21:03:52.508Z,1010.55
2022-08-12T21:10:00.977Z,1010.55
2022-08-12T21:16:31.404Z,1010.55
2022-08-12T21:22:44.002Z,1010.65
2022-08-12T21:29:06.979Z,1010.65
2022-08-12T21:35:26.965Z,1010.69
2022-08-12T21:41:50.959Z,1010.77
2022-08-12T21:48:09.975Z,1010.77
2022-08-12T21:54:32.989Z,1010.77
2022-08-12T22:20:04.979Z,1010.91
2022-08-12T22:26:29.066Z,1010.87
2022-08-12T22:32:50.314Z,1010.89
2022-08-12T22:39:07.976Z,1010.87
2022-08-12T22:45:30.982Z,1010.87
2022-08-12T22:52:01.084Z,1010.83
2022-08-12T22:58:13.971Z,1010.83
2022-08-12T23:04:33.986Z,1010.83
2022-08-12T23:10:56.976Z,1010.81
2022-08-12T23:17:21.304Z,1010.77
2022-08-12T23:23:57.794Z,1010.79
2022-08-12T23:30:18.183Z,1010.79
2022-08-12T23:36:32.002Z,1010.77
2022-08-12T23:42:42.974Z,1010.77
2022-08-12T23:49:05.974Z,1010.79
2022-08-12T23:55:28.700Z,1010.79
